sensor_id;sensor_type;location;lat;lon;timestamp;P1;durP1;ratioP1;P2;durP2;ratioP2
70908;SDS011;58554;52.006;5.926;2022-09-29T00:00:12;7.20;;;5.87;;
70908;SDS011;58554;52.006;5.926;2022-09-29T00:02:40;10.70;;;6.40;;
70908;SDS011;58554;52.006;5.926;2022-09-29T00:05:07;10.00;;;6.43;;
70908;SDS011;58554;52.006;5.926;2022-09-29T00:07:34;8.67;;;6.30;;
70908;SDS011;58554;52.006;5.926;2022-09-29T00:10:00;9.73;;;6.43;;
70908;SDS011;58554;52.006;5.926;2022-09-29T00:12:27;10.07;;;5.93;;
70908;SDS011;58554;52.006;5.926;2022-09-29T00:14:56;8.40;;;6.28;;
70908;SDS011;58554;52.006;5.926;2022-09-29T00:17:22;9.63;;;6.35;;
70908;SDS011;58554;52.006;5.926;2022-09-29T00:19:49;9.10;;;6.55;;
70908;SDS011;58554;52.006;5.926;2022-09-29T00:22:15;7.65;;;6.18;;
70908;SDS011;58554;52.006;5.926;2022-09-29T00:24:42;7.90;;;6.13;;
70908;SDS011;58554;52.006;5.926;2022-09-29T00:27:08;8.25;;;6.35;;
70908;SDS011;58554;52.006;5.926;2022-09-29T00:29:35;9.65;;;6.03;;
70908;SDS011;58554;52.006;5.926;2022-09-29T00:32:04;8.20;;;6.10;;
70908;SDS011;58554;52.006;5.926;2022-09-29T00:34:30;8.40;;;6.25;;
70908;SDS011;58554;52.006;5.926;2022-09-29T00:36:57;8.43;;;6.33;;
70908;SDS011;58554;52.006;5.926;2022-09-29T00:39:23;8.55;;;6.53;;
70908;SDS011;58554;52.006;5.926;2022-09-29T00:41:50;9.20;;;6.00;;
70908;SDS011;58554;52.006;5.926;2022-09-29T00:47:28;7.70;;;6.13;;
70908;SDS011;58554;52.006;5.926;2022-09-29T00:50:01;8.57;;;6.68;;
70908;SDS011;58554;52.006;5.926;2022-09-29T00:52:39;9.02;;;6.40;;
70908;SDS011;58554;52.006;5.926;2022-09-29T00:55:13;10.18;;;6.40;;
70908;SDS011;58554;52.006;5.926;2022-09-29T00:57:46;9.32;;;6.88;;
70908;SDS011;58554;52.006;5.926;2022-09-29T01:00:19;9.37;;;6.60;;
70908;SDS011;58554;52.006;5.926;2022-09-29T01:02:50;9.30;;;6.93;;
70908;SDS011;58554;52.006;5.926;2022-09-29T01:05:24;9.53;;;6.47;;
70908;SDS011;58554;52.006;5.926;2022-09-29T01:07:56;9.30;;;6.53;;
70908;SDS011;58554;52.006;5.926;2022-09-29T01:10:30;8.77;;;6.43;;
70908;SDS011;58554;52.006;5.926;2022-09-29T01:13:00;9.45;;;6.63;;
70908;SDS011;58554;52.006;5.926;2022-09-29T01:15:27;8.25;;;6.43;;
70908;SDS011;58554;52.006;5.926;2022-09-29T01:17:57;7.93;;;6.53;;
70908;SDS011;58554;52.006;5.926;2022-09-29T01:20:24;8.77;;;6.53;;
70908;SDS011;58554;52.006;5.926;2022-09-29T01:26:18;9.02;;;6.00;;
70908;SDS011;58554;52.006;5.926;2022-09-29T01:29:50;8.63;;;6.43;;
70908;SDS011;58554;52.006;5.926;2022-09-29T01:32:55;8.23;;;6.32;;
70908;SDS011;58554;52.006;5.926;2022-09-29T01:35:51;9.73;;;6.15;;
70908;SDS011;58554;52.006;5.926;2022-09-29T01:38:36;9.07;;;6.20;;
70908;SDS011;58554;52.006;5.926;2022-09-29T01:41:26;9.48;;;6.68;;
70908;SDS011;58554;52.006;5.926;2022-09-29T01:44:03;9.07;;;6.32;;
70908;SDS011;58554;52.006;5.926;2022-09-29T01:46:42;9.70;;;6.87;;
70908;SDS011;58554;52.006;5.926;2022-09-29T01:49:16;9.45;;;7.05;;
70908;SDS011;58554;52.006;5.926;2022-09-29T01:51:49;9.65;;;6.55;;
70908;SDS011;58554;52.006;5.926;2022-09-29T01:54:26;13.17;;;6.90;;
70908;SDS011;58554;52.006;5.926;2022-09-29T01:57:02;9.15;;;6.82;;
70908;SDS011;58554;52.006;5.926;2022-09-29T01:59:37;8.63;;;6.47;;
70908;SDS011;58554;52.006;5.926;2022-09-29T02:02:15;8.60;;;6.90;;
70908;SDS011;58554;52.006;5.926;2022-09-29T02:04:51;9.15;;;6.90;;
70908;SDS011;58554;52.006;5.926;2022-09-29T02:07:24;9.75;;;6.75;;
70908;SDS011;58554;52.006;5.926;2022-09-29T02:10:00;10.63;;;6.80;;
70908;SDS011;58554;52.006;5.926;2022-09-29T02:12:34;11.40;;;7.30;;
70908;SDS011;58554;52.006;5.926;2022-09-29T02:15:08;9.60;;;7.53;;
70908;SDS011;58554;52.006;5.926;2022-09-29T02:17:44;10.32;;;7.10;;
70908;SDS011;58554;52.006;5.926;2022-09-29T02:20:18;9.73;;;6.93;;
70908;SDS011;58554;52.006;5.926;2022-09-29T02:22:45;11.17;;;7.07;;
70908;SDS011;58554;52.006;5.926;2022-09-29T02:25:12;10.27;;;7.20;;
70908;SDS011;58554;52.006;5.926;2022-09-29T02:27:44;8.90;;;6.60;;
70908;SDS011;58554;52.006;5.926;2022-09-29T02:30:14;12.53;;;7.43;;
70908;SDS011;58554;52.006;5.926;2022-09-29T02:32:40;10.23;;;7.00;;
70908;SDS011;58554;52.006;5.926;2022-09-29T02:35:08;11.50;;;7.10;;
70908;SDS011;58554;52.006;5.926;2022-09-29T02:40:34;10.50;;;7.47;;
70908;SDS011;58554;52.006;5.926;2022-09-29T02:43:26;10.80;;;7.43;;
70908;SDS011;58554;52.006;5.926;2022-09-29T02:46:24;10.75;;;7.43;;
70908;SDS011;58554;52.006;5.926;2022-09-29T02:52:22;11.40;;;7.65;;
70908;SDS011;58554;52.006;5.926;2022-09-29T02:55:04;11.40;;;8.20;;
70908;SDS011;58554;52.006;5.926;2022-09-29T02:57:44;10.98;;;7.57;;
70908;SDS011;58554;52.006;5.926;2022-09-29T03:00:18;10.97;;;7.67;;
70908;SDS011;58554;52.006;5.926;2022-09-29T03:02:46;10.57;;;7.45;;
70908;SDS011;58554;52.006;5.926;2022-09-29T03:05:13;9.75;;;7.47;;
70908;SDS011;58554;52.006;5.926;2022-09-29T03:07:42;10.50;;;7.95;;
70908;SDS011;58554;52.006;5.926;2022-09-29T03:10:12;9.83;;;7.63;;
70908;SDS011;58554;52.006;5.926;2022-09-29T03:12:41;10.85;;;8.20;;
70908;SDS011;58554;52.006;5.926;2022-09-29T03:15:09;9.75;;;7.55;;
70908;SDS011;58554;52.006;5.926;2022-09-29T03:17:36;10.60;;;7.97;;
70908;SDS011;58554;52.006;5.926;2022-09-29T03:20:02;10.63;;;8.27;;
70908;SDS011;58554;52.006;5.926;2022-09-29T03:22:30;11.97;;;8.43;;
70908;SDS011;58554;52.006;5.926;2022-09-29T03:24:57;11.98;;;7.85;;
70908;SDS011;58554;52.006;5.926;2022-09-29T03:27:26;11.33;;;7.93;;
70908;SDS011;58554;52.006;5.926;2022-09-29T03:29:52;10.77;;;8.07;;
70908;SDS011;58554;52.006;5.926;2022-09-29T03:32:19;12.03;;;7.93;;
70908;SDS011;58554;52.006;5.926;2022-09-29T03:34:45;10.50;;;8.60;;
70908;SDS011;58554;52.006;5.926;2022-09-29T03:37:12;11.60;;;8.33;;
70908;SDS011;58554;52.006;5.926;2022-09-29T03:39:38;13.57;;;8.37;;
70908;SDS011;58554;52.006;5.926;2022-09-29T03:42:05;13.73;;;8.35;;
70908;SDS011;58554;52.006;5.926;2022-09-29T03:44:34;12.55;;;8.52;;
70908;SDS011;58554;52.006;5.926;2022-09-29T03:47:01;12.73;;;8.35;;
70908;SDS011;58554;52.006;5.926;2022-09-29T03:49:27;13.90;;;8.63;;
70908;SDS011;58554;52.006;5.926;2022-09-29T03:51:54;11.37;;;8.20;;
70908;SDS011;58554;52.006;5.926;2022-09-29T03:54:20;11.07;;;7.93;;
70908;SDS011;58554;52.006;5.926;2022-09-29T03:56:47;11.07;;;7.93;;
70908;SDS011;58554;52.006;5.926;2022-09-29T03:59:13;12.73;;;7.80;;
70908;SDS011;58554;52.006;5.926;2022-09-29T04:01:42;10.90;;;8.17;;
70908;SDS011;58554;52.006;5.926;2022-09-29T04:04:09;10.80;;;7.68;;
70908;SDS011;58554;52.006;5.926;2022-09-29T04:06:36;10.90;;;8.07;;
70908;SDS011;58554;52.006;5.926;2022-09-29T04:09:02;11.53;;;7.90;;
70908;SDS011;58554;52.006;5.926;2022-09-29T04:11:29;13.90;;;8.70;;
70908;SDS011;58554;52.006;5.926;2022-09-29T04:13:55;12.02;;;8.38;;
70908;SDS011;58554;52.006;5.926;2022-09-29T04:16:22;11.13;;;7.97;;
70908;SDS011;58554;52.006;5.926;2022-09-29T04:18:51;11.10;;;7.97;;
70908;SDS011;58554;52.006;5.926;2022-09-29T04:21:17;13.00;;;8.13;;
70908;SDS011;58554;52.006;5.926;2022-09-29T04:23:44;12.63;;;8.57;;
70908;SDS011;58554;52.006;5.926;2022-09-29T04:26:11;10.20;;;7.37;;
70908;SDS011;58554;52.006;5.926;2022-09-29T04:28:38;11.70;;;7.93;;
70908;SDS011;58554;52.006;5.926;2022-09-29T04:31:04;12.85;;;7.60;;
70908;SDS011;58554;52.006;5.926;2022-09-29T04:33:32;11.27;;;8.13;;
70908;SDS011;58554;52.006;5.926;2022-09-29T04:36:01;10.53;;;7.83;;
70908;SDS011;58554;52.006;5.926;2022-09-29T04:38:29;11.70;;;8.07;;
70908;SDS011;58554;52.006;5.926;2022-09-29T04:40:55;13.10;;;8.40;;
70908;SDS011;58554;52.006;5.926;2022-09-29T04:43:22;13.10;;;8.70;;
70908;SDS011;58554;52.006;5.926;2022-09-29T04:45:49;18.15;;;8.98;;
70908;SDS011;58554;52.006;5.926;2022-09-29T04:48:16;12.77;;;8.63;;
70908;SDS011;58554;52.006;5.926;2022-09-29T04:50:42;15.93;;;8.70;;
70908;SDS011;58554;52.006;5.926;2022-09-29T04:53:13;19.60;;;8.53;;
70908;SDS011;58554;52.006;5.926;2022-09-29T04:55:40;16.07;;;8.20;;
70908;SDS011;58554;52.006;5.926;2022-09-29T04:58:06;12.27;;;8.77;;
70908;SDS011;58554;52.006;5.926;2022-09-29T05:00:33;14.17;;;8.63;;
70908;SDS011;58554;52.006;5.926;2022-09-29T05:02:59;13.57;;;7.87;;
70908;SDS011;58554;52.006;5.926;2022-09-29T05:05:25;22.37;;;8.27;;
70908;SDS011;58554;52.006;5.926;2022-09-29T05:07:52;14.10;;;8.17;;
70908;SDS011;58554;52.006;5.926;2022-09-29T05:10:21;17.30;;;8.10;;
70908;SDS011;58554;52.006;5.926;2022-09-29T05:12:48;15.43;;;8.00;;
70908;SDS011;58554;52.006;5.926;2022-09-29T05:15:15;13.10;;;7.50;;
70908;SDS011;58554;52.006;5.926;2022-09-29T05:17:43;12.93;;;7.47;;
70908;SDS011;58554;52.006;5.926;2022-09-29T05:20:10;14.55;;;7.40;;
70908;SDS011;58554;52.006;5.926;2022-09-29T05:22:37;27.90;;;8.07;;
70908;SDS011;58554;52.006;5.926;2022-09-29T05:25:04;13.10;;;8.47;;
70908;SDS011;58554;52.006;5.926;2022-09-29T05:27:35;12.13;;;7.10;;
70908;SDS011;58554;52.006;5.926;2022-09-29T05:30:02;12.97;;;7.87;;
70908;SDS011;58554;52.006;5.926;2022-09-29T05:32:31;13.47;;;8.13;;
70908;SDS011;58554;52.006;5.926;2022-09-29T05:34:58;16.90;;;7.60;;
70908;SDS011;58554;52.006;5.926;2022-09-29T05:37:25;12.77;;;8.00;;
70908;SDS011;58554;52.006;5.926;2022-09-29T05:39:51;12.75;;;7.82;;
70908;SDS011;58554;52.006;5.926;2022-09-29T05:42:18;10.67;;;7.73;;
70908;SDS011;58554;52.006;5.926;2022-09-29T05:44:47;12.50;;;8.47;;
70908;SDS011;58554;52.006;5.926;2022-09-29T05:47:13;13.85;;;7.90;;
70908;SDS011;58554;52.006;5.926;2022-09-29T05:49:40;11.90;;;8.30;;
70908;SDS011;58554;52.006;5.926;2022-09-29T05:52:06;11.02;;;7.95;;
70908;SDS011;58554;52.006;5.926;2022-09-29T05:54:33;12.03;;;7.97;;
70908;SDS011;58554;52.006;5.926;2022-09-29T05:56:59;12.25;;;8.10;;
70908;SDS011;58554;52.006;5.926;2022-09-29T05:59:26;16.63;;;8.53;;
70908;SDS011;58554;52.006;5.926;2022-09-29T06:01:55;15.50;;;9.00;;
70908;SDS011;58554;52.006;5.926;2022-09-29T06:04:22;13.70;;;8.67;;
70908;SDS011;58554;52.006;5.926;2022-09-29T06:06:48;14.65;;;8.98;;
70908;SDS011;58554;52.006;5.926;2022-09-29T06:09:15;14.60;;;8.73;;
70908;SDS011;58554;52.006;5.926;2022-09-29T06:11:41;15.18;;;8.60;;
70908;SDS011;58554;52.006;5.926;2022-09-29T06:14:08;16.83;;;8.80;;
70908;SDS011;58554;52.006;5.926;2022-09-29T06:16:34;17.52;;;9.48;;
70908;SDS011;58554;52.006;5.926;2022-09-29T06:19:03;24.83;;;11.37;;
70908;SDS011;58554;52.006;5.926;2022-09-29T06:21:30;26.97;;;12.77;;
70908;SDS011;58554;52.006;5.926;2022-09-29T06:23:57;24.07;;;11.83;;
70908;SDS011;58554;52.006;5.926;2022-09-29T06:26:24;21.60;;;11.93;;
70908;SDS011;58554;52.006;5.926;2022-09-29T06:28:53;19.73;;;11.20;;
70908;SDS011;58554;52.006;5.926;2022-09-29T06:31:21;21.07;;;10.73;;
70908;SDS011;58554;52.006;5.926;2022-09-29T06:33:50;19.20;;;10.23;;
70908;SDS011;58554;52.006;5.926;2022-09-29T06:36:21;17.48;;;10.07;;
70908;SDS011;58554;52.006;5.926;2022-09-29T06:38:52;18.23;;;10.40;;
70908;SDS011;58554;52.006;5.926;2022-09-29T06:41:18;19.42;;;10.88;;
70908;SDS011;58554;52.006;5.926;2022-09-29T06:43:44;20.77;;;11.67;;
70908;SDS011;58554;52.006;5.926;2022-09-29T06:46:11;19.57;;;11.27;;
70908;SDS011;58554;52.006;5.926;2022-09-29T06:48:37;21.73;;;11.43;;
70908;SDS011;58554;52.006;5.926;2022-09-29T06:51:05;18.67;;;11.20;;
70908;SDS011;58554;52.006;5.926;2022-09-29T06:53:35;28.10;;;11.98;;
70908;SDS011;58554;52.006;5.926;2022-09-29T06:56:02;26.50;;;11.63;;
70908;SDS011;58554;52.006;5.926;2022-09-29T06:58:29;18.20;;;11.20;;
70908;SDS011;58554;52.006;5.926;2022-09-29T07:00:58;21.75;;;11.98;;
70908;SDS011;58554;52.006;5.926;2022-09-29T07:03:26;23.17;;;11.70;;
70908;SDS011;58554;52.006;5.926;2022-09-29T07:05:53;24.08;;;12.73;;
70908;SDS011;58554;52.006;5.926;2022-09-29T07:08:19;27.77;;;13.03;;
70908;SDS011;58554;52.006;5.926;2022-09-29T07:10:48;23.60;;;12.77;;
70908;SDS011;58554;52.006;5.926;2022-09-29T07:13:14;21.37;;;12.10;;
70908;SDS011;58554;52.006;5.926;2022-09-29T07:15:41;26.77;;;12.77;;
70908;SDS011;58554;52.006;5.926;2022-09-29T07:18:07;30.50;;;12.23;;
70908;SDS011;58554;52.006;5.926;2022-09-29T07:20:34;21.95;;;12.20;;
70908;SDS011;58554;52.006;5.926;2022-09-29T07:23:01;21.02;;;12.18;;
70908;SDS011;58554;52.006;5.926;2022-09-29T07:25:27;23.37;;;12.70;;
70908;SDS011;58554;52.006;5.926;2022-09-29T07:27:56;20.20;;;12.47;;
70908;SDS011;58554;52.006;5.926;2022-09-29T07:30:23;25.97;;;13.00;;
70908;SDS011;58554;52.006;5.926;2022-09-29T07:32:49;24.93;;;13.60;;
70908;SDS011;58554;52.006;5.926;2022-09-29T07:35:16;24.70;;;13.80;;
70908;SDS011;58554;52.006;5.926;2022-09-29T07:37:49;24.90;;;13.60;;
70908;SDS011;58554;52.006;5.926;2022-09-29T07:40:16;23.40;;;13.70;;
70908;SDS011;58554;52.006;5.926;2022-09-29T07:42:43;27.08;;;15.50;;
70908;SDS011;58554;52.006;5.926;2022-09-29T07:45:12;27.15;;;14.82;;
70908;SDS011;58554;52.006;5.926;2022-09-29T07:47:39;25.50;;;14.83;;
70908;SDS011;58554;52.006;5.926;2022-09-29T07:50:06;25.42;;;14.15;;
70908;SDS011;58554;52.006;5.926;2022-09-29T07:52:33;27.08;;;15.52;;
70908;SDS011;58554;52.006;5.926;2022-09-29T07:55:00;26.08;;;15.25;;
70908;SDS011;58554;52.006;5.926;2022-09-29T07:57:26;28.77;;;15.20;;
70908;SDS011;58554;52.006;5.926;2022-09-29T07:59:53;28.03;;;15.73;;
70908;SDS011;58554;52.006;5.926;2022-09-29T08:02:22;31.73;;;16.93;;
70908;SDS011;58554;52.006;5.926;2022-09-29T08:04:48;29.00;;;16.70;;
70908;SDS011;58554;52.006;5.926;2022-09-29T08:07:15;28.77;;;16.33;;
70908;SDS011;58554;52.006;5.926;2022-09-29T08:09:41;29.25;;;17.65;;
70908;SDS011;58554;52.006;5.926;2022-09-29T08:12:08;30.73;;;16.98;;
70908;SDS011;58554;52.006;5.926;2022-09-29T08:14:34;29.00;;;16.42;;
70908;SDS011;58554;52.006;5.926;2022-09-29T08:17:01;32.77;;;16.53;;
70908;SDS011;58554;52.006;5.926;2022-09-29T08:19:30;30.83;;;17.38;;
70908;SDS011;58554;52.006;5.926;2022-09-29T08:21:56;29.05;;;16.73;;
70908;SDS011;58554;52.006;5.926;2022-09-29T08:24:23;35.30;;;17.83;;
70908;SDS011;58554;52.006;5.926;2022-09-29T08:26:49;32.45;;;18.55;;
70908;SDS011;58554;52.006;5.926;2022-09-29T08:29:15;32.17;;;18.10;;
70908;SDS011;58554;52.006;5.926;2022-09-29T08:31:42;33.33;;;18.80;;
70908;SDS011;58554;52.006;5.926;2022-09-29T08:34:09;32.38;;;18.17;;
70908;SDS011;58554;52.006;5.926;2022-09-29T08:36:38;35.57;;;19.10;;
70908;SDS011;58554;52.006;5.926;2022-09-29T08:39:05;32.97;;;18.37;;
70908;SDS011;58554;52.006;5.926;2022-09-29T08:41:33;36.63;;;19.33;;
70908;SDS011;58554;52.006;5.926;2022-09-29T08:44:16;35.28;;;18.30;;
70908;SDS011;58554;52.006;5.926;2022-09-29T08:46:51;41.33;;;19.73;;
70908;SDS011;58554;52.006;5.926;2022-09-29T08:49:25;37.03;;;20.23;;
70908;SDS011;58554;52.006;5.926;2022-09-29T08:52:07;37.30;;;20.75;;
70908;SDS011;58554;52.006;5.926;2022-09-29T08:54:40;41.13;;;20.88;;
70908;SDS011;58554;52.006;5.926;2022-09-29T08:57:11;41.33;;;21.63;;
70908;SDS011;58554;52.006;5.926;2022-09-29T08:59:41;44.90;;;22.00;;
70908;SDS011;58554;52.006;5.926;2022-09-29T09:02:21;41.53;;;21.73;;
70908;SDS011;58554;52.006;5.926;2022-09-29T09:05:14;37.42;;;21.85;;
70908;SDS011;58554;52.006;5.926;2022-09-29T09:08:12;41.97;;;21.92;;
70908;SDS011;58554;52.006;5.926;2022-09-29T09:11:04;44.30;;;22.57;;
70908;SDS011;58554;52.006;5.926;2022-09-29T09:13:52;44.17;;;23.33;;
70908;SDS011;58554;52.006;5.926;2022-09-29T09:16:38;43.63;;;24.10;;
70908;SDS011;58554;52.006;5.926;2022-09-29T09:19:26;48.50;;;24.42;;
70908;SDS011;58554;52.006;5.926;2022-09-29T09:22:13;45.17;;;23.33;;
70908;SDS011;58554;52.006;5.926;2022-09-29T09:24:52;43.60;;;23.33;;
70908;SDS011;58554;52.006;5.926;2022-09-29T09:27:24;48.92;;;24.90;;
70908;SDS011;58554;52.006;5.926;2022-09-29T09:30:00;45.90;;;24.87;;
70908;SDS011;58554;52.006;5.926;2022-09-29T09:32:33;45.78;;;24.20;;
70908;SDS011;58554;52.006;5.926;2022-09-29T09:35:14;46.53;;;24.77;;
70908;SDS011;58554;52.006;5.926;2022-09-29T09:37:57;50.20;;;25.37;;
70908;SDS011;58554;52.006;5.926;2022-09-29T09:40:33;47.03;;;24.15;;
70908;SDS011;58554;52.006;5.926;2022-09-29T09:43:09;47.25;;;25.42;;
70908;SDS011;58554;52.006;5.926;2022-09-29T09:45:44;47.10;;;24.87;;
70908;SDS011;58554;52.006;5.926;2022-09-29T09:48:20;44.10;;;23.95;;
70908;SDS011;58554;52.006;5.926;2022-09-29T09:50:58;44.77;;;24.23;;
70908;SDS011;58554;52.006;5.926;2022-09-29T09:53:36;40.40;;;22.60;;
70908;SDS011;58554;52.006;5.926;2022-09-29T09:56:18;43.97;;;24.17;;
70908;SDS011;58554;52.006;5.926;2022-09-29T09:59:04;46.10;;;23.70;;
70908;SDS011;58554;52.006;5.926;2022-09-29T10:01:50;42.47;;;22.70;;
70908;SDS011;58554;52.006;5.926;2022-09-29T10:04:17;40.55;;;22.02;;
70908;SDS011;58554;52.006;5.926;2022-09-29T10:06:43;36.03;;;20.37;;
70908;SDS011;58554;52.006;5.926;2022-09-29T10:09:11;31.50;;;19.13;;
70908;SDS011;58554;52.006;5.926;2022-09-29T10:11:43;32.28;;;17.60;;
70908;SDS011;58554;52.006;5.926;2022-09-29T10:14:12;29.83;;;16.98;;
70908;SDS011;58554;52.006;5.926;2022-09-29T10:16:47;26.53;;;16.17;;
70908;SDS011;58554;52.006;5.926;2022-09-29T10:19:22;30.50;;;18.43;;
70908;SDS011;58554;52.006;5.926;2022-09-29T10:22:12;29.93;;;17.17;;
70908;SDS011;58554;52.006;5.926;2022-09-29T10:24:40;33.78;;;18.70;;
70908;SDS011;58554;52.006;5.926;2022-09-29T10:27:09;33.13;;;18.57;;
70908;SDS011;58554;52.006;5.926;2022-09-29T10:29:42;30.60;;;18.00;;
70908;SDS011;58554;52.006;5.926;2022-09-29T10:32:13;30.10;;;18.03;;
70908;SDS011;58554;52.006;5.926;2022-09-29T10:34:47;27.90;;;17.27;;
70908;SDS011;58554;52.006;5.926;2022-09-29T10:37:28;26.17;;;15.30;;
70908;SDS011;58554;52.006;5.926;2022-09-29T10:40:02;25.20;;;14.40;;
70908;SDS011;58554;52.006;5.926;2022-09-29T10:42:43;26.10;;;15.07;;
70908;SDS011;58554;52.006;5.926;2022-09-29T10:45:14;20.02;;;13.43;;
70908;SDS011;58554;52.006;5.926;2022-09-29T10:47:44;23.03;;;13.57;;
70908;SDS011;58554;52.006;5.926;2022-09-29T10:50:15;22.07;;;13.03;;
70908;SDS011;58554;52.006;5.926;2022-09-29T10:52:46;20.73;;;12.60;;
70908;SDS011;58554;52.006;5.926;2022-09-29T10:55:18;22.13;;;12.90;;
70908;SDS011;58554;52.006;5.926;2022-09-29T10:57:50;22.30;;;13.50;;
70908;SDS011;58554;52.006;5.926;2022-09-29T11:00:25;20.87;;;12.63;;
70908;SDS011;58554;52.006;5.926;2022-09-29T11:02:59;17.90;;;11.20;;
70908;SDS011;58554;52.006;5.926;2022-09-29T11:05:33;18.87;;;11.60;;
70908;SDS011;58554;52.006;5.926;2022-09-29T11:08:03;18.03;;;10.83;;
70908;SDS011;58554;52.006;5.926;2022-09-29T11:10:37;20.33;;;12.20;;
70908;SDS011;58554;52.006;5.926;2022-09-29T11:13:28;16.37;;;10.60;;
70908;SDS011;58554;52.006;5.926;2022-09-29T11:16:03;17.03;;;10.37;;
70908;SDS011;58554;52.006;5.926;2022-09-29T11:18:38;18.70;;;10.55;;
70908;SDS011;58554;52.006;5.926;2022-09-29T11:21:13;16.07;;;10.07;;
70908;SDS011;58554;52.006;5.926;2022-09-29T11:24:19;17.37;;;10.43;;
70908;SDS011;58554;52.006;5.926;2022-09-29T11:27:05;17.10;;;10.82;;
70908;SDS011;58554;52.006;5.926;2022-09-29T11:29:49;17.85;;;10.77;;
70908;SDS011;58554;52.006;5.926;2022-09-29T11:32:33;14.05;;;7.80;;
70908;SDS011;58554;52.006;5.926;2022-09-29T11:35:24;14.02;;;8.57;;
70908;SDS011;58554;52.006;5.926;2022-09-29T11:41:16;15.60;;;9.40;;
70908;SDS011;58554;52.006;5.926;2022-09-29T11:44:08;15.80;;;9.40;;
70908;SDS011;58554;52.006;5.926;2022-09-29T11:47:02;14.50;;;9.37;;
70908;SDS011;58554;52.006;5.926;2022-09-29T11:50:08;15.47;;;8.87;;
70908;SDS011;58554;52.006;5.926;2022-09-29T11:53:01;12.50;;;7.67;;
70908;SDS011;58554;52.006;5.926;2022-09-29T11:55:47;12.37;;;7.07;;
70908;SDS011;58554;52.006;5.926;2022-09-29T11:58:40;9.65;;;6.15;;
70908;SDS011;58554;52.006;5.926;2022-09-29T12:01:29;10.47;;;5.87;;
70908;SDS011;58554;52.006;5.926;2022-09-29T12:04:26;7.73;;;5.07;;
70908;SDS011;58554;52.006;5.926;2022-09-29T12:07:10;11.20;;;5.90;;
70908;SDS011;58554;52.006;5.926;2022-09-29T12:13:05;11.95;;;7.13;;
70908;SDS011;58554;52.006;5.926;2022-09-29T12:15:47;10.27;;;6.90;;
70908;SDS011;58554;52.006;5.926;2022-09-29T12:18:23;11.77;;;7.70;;
70908;SDS011;58554;52.006;5.926;2022-09-29T12:21:00;11.87;;;7.33;;
70908;SDS011;58554;52.006;5.926;2022-09-29T12:23:31;11.90;;;7.40;;
70908;SDS011;58554;52.006;5.926;2022-09-29T12:26:04;10.20;;;7.07;;
70908;SDS011;58554;52.006;5.926;2022-09-29T12:28:39;11.23;;;7.73;;
70908;SDS011;58554;52.006;5.926;2022-09-29T12:31:15;12.27;;;7.83;;
70908;SDS011;58554;52.006;5.926;2022-09-29T12:33:48;10.40;;;7.20;;
70908;SDS011;58554;52.006;5.926;2022-09-29T12:36:32;12.40;;;6.93;;
70908;SDS011;58554;52.006;5.926;2022-09-29T12:39:12;12.40;;;7.50;;
70908;SDS011;58554;52.006;5.926;2022-09-29T12:42:00;9.37;;;6.30;;
70908;SDS011;58554;52.006;5.926;2022-09-29T12:44:43;9.67;;;6.50;;
70908;SDS011;58554;52.006;5.926;2022-09-29T12:47:20;10.07;;;6.67;;
70908;SDS011;58554;52.006;5.926;2022-09-29T12:50:02;11.13;;;5.63;;
70908;SDS011;58554;52.006;5.926;2022-09-29T12:52:43;8.73;;;5.10;;
70908;SDS011;58554;52.006;5.926;2022-09-29T12:55:22;7.47;;;5.00;;
70908;SDS011;58554;52.006;5.926;2022-09-29T12:57:58;7.47;;;5.00;;
70908;SDS011;58554;52.006;5.926;2022-09-29T13:00:33;6.57;;;4.40;;
70908;SDS011;58554;52.006;5.926;2022-09-29T13:03:12;6.53;;;4.80;;
70908;SDS011;58554;52.006;5.926;2022-09-29T13:06:09;6.33;;;3.90;;
70908;SDS011;58554;52.006;5.926;2022-09-29T13:15:28;5.55;;;4.00;;
70908;SDS011;58554;52.006;5.926;2022-09-29T13:18:14;6.83;;;4.70;;
70908;SDS011;58554;52.006;5.926;2022-09-29T13:21:12;7.13;;;4.20;;
70908;SDS011;58554;52.006;5.926;2022-09-29T13:23:58;6.15;;;4.10;;
70908;SDS011;58554;52.006;5.926;2022-09-29T13:29:51;4.00;;;1.57;;
70908;SDS011;58554;52.006;5.926;2022-09-29T13:32:25;3.00;;;2.07;;
70908;SDS011;58554;52.006;5.926;2022-09-29T13:34:53;5.53;;;2.80;;
70908;SDS011;58554;52.006;5.926;2022-09-29T13:37:24;4.53;;;3.45;;
70908;SDS011;58554;52.006;5.926;2022-09-29T13:39:56;6.23;;;4.10;;
70908;SDS011;58554;52.006;5.926;2022-09-29T13:42:39;5.37;;;3.50;;
70908;SDS011;58554;52.006;5.926;2022-09-29T13:54:13;5.72;;;3.60;;
70908;SDS011;58554;52.006;5.926;2022-09-29T14:05:54;5.00;;;3.30;;
70908;SDS011;58554;52.006;5.926;2022-09-29T14:08:38;4.90;;;3.33;;
70908;SDS011;58554;52.006;5.926;2022-09-29T14:11:19;5.72;;;3.33;;
70908;SDS011;58554;52.006;5.926;2022-09-29T14:13:56;5.70;;;3.05;;
70908;SDS011;58554;52.006;5.926;2022-09-29T14:16:38;4.40;;;3.20;;
70908;SDS011;58554;52.006;5.926;2022-09-29T14:19:22;4.30;;;2.80;;
70908;SDS011;58554;52.006;5.926;2022-09-29T14:22:01;6.40;;;3.00;;
70908;SDS011;58554;52.006;5.926;2022-09-29T14:24:42;4.13;;;3.15;;
70908;SDS011;58554;52.006;5.926;2022-09-29T14:30:11;4.13;;;3.00;;
70908;SDS011;58554;52.006;5.926;2022-09-29T14:32:47;4.37;;;2.77;;
70908;SDS011;58554;52.006;5.926;2022-09-29T14:35:26;4.65;;;2.90;;
70908;SDS011;58554;52.006;5.926;2022-09-29T14:38:00;4.57;;;2.90;;
70908;SDS011;58554;52.006;5.926;2022-09-29T14:40:35;5.05;;;2.90;;
70908;SDS011;58554;52.006;5.926;2022-09-29T14:43:03;4.63;;;2.63;;
70908;SDS011;58554;52.006;5.926;2022-09-29T14:45:41;5.65;;;2.63;;
70908;SDS011;58554;52.006;5.926;2022-09-29T14:48:42;3.00;;;2.15;;
70908;SDS011;58554;52.006;5.926;2022-09-29T14:51:30;3.90;;;1.93;;
70908;SDS011;58554;52.006;5.926;2022-09-29T14:54:10;3.97;;;2.33;;
70908;SDS011;58554;52.006;5.926;2022-09-29T14:56:53;3.90;;;2.10;;
70908;SDS011;58554;52.006;5.926;2022-09-29T14:59:45;3.13;;;2.30;;
70908;SDS011;58554;52.006;5.926;2022-09-29T15:02:27;4.10;;;2.40;;
70908;SDS011;58554;52.006;5.926;2022-09-29T15:05:00;3.43;;;2.43;;
70908;SDS011;58554;52.006;5.926;2022-09-29T15:07:49;4.07;;;2.40;;
70908;SDS011;58554;52.006;5.926;2022-09-29T15:10:19;4.53;;;2.90;;
70908;SDS011;58554;52.006;5.926;2022-09-29T15:12:51;7.27;;;2.73;;
70908;SDS011;58554;52.006;5.926;2022-09-29T15:15:31;3.50;;;2.80;;
70908;SDS011;58554;52.006;5.926;2022-09-29T15:18:10;5.17;;;3.10;;
70908;SDS011;58554;52.006;5.926;2022-09-29T15:20:59;4.70;;;2.90;;
70908;SDS011;58554;52.006;5.926;2022-09-29T15:26:39;3.60;;;2.80;;
70908;SDS011;58554;52.006;5.926;2022-09-29T15:29:07;6.27;;;3.20;;
70908;SDS011;58554;52.006;5.926;2022-09-29T15:31:42;4.30;;;2.63;;
70908;SDS011;58554;52.006;5.926;2022-09-29T15:34:13;5.07;;;2.88;;
70908;SDS011;58554;52.006;5.926;2022-09-29T15:36:49;5.07;;;2.97;;
70908;SDS011;58554;52.006;5.926;2022-09-29T15:39:34;6.10;;;2.93;;
70908;SDS011;58554;52.006;5.926;2022-09-29T15:42:12;4.40;;;2.47;;
70908;SDS011;58554;52.006;5.926;2022-09-29T15:44:45;6.78;;;3.00;;
70908;SDS011;58554;52.006;5.926;2022-09-29T15:47:19;4.07;;;2.80;;
70908;SDS011;58554;52.006;5.926;2022-09-29T15:49:51;4.65;;;3.08;;
70908;SDS011;58554;52.006;5.926;2022-09-29T15:52:22;4.10;;;2.70;;
70908;SDS011;58554;52.006;5.926;2022-09-29T15:54:52;5.45;;;3.25;;
70908;SDS011;58554;52.006;5.926;2022-09-29T15:57:29;3.77;;;2.53;;
70908;SDS011;58554;52.006;5.926;2022-09-29T16:00:15;4.70;;;3.40;;
70908;SDS011;58554;52.006;5.926;2022-09-29T16:03:26;3.88;;;2.97;;